sensor_id;sensor_type;location;lat;lon;timestamp;temperature;humidity
62363;DHT22;48396;48.426;1.500;2023-04-24T00:01:13;13.30;90.60
62363;DHT22;48396;48.426;1.500;2023-04-24T00:03:40;13.30;90.60
62363;DHT22;48396;48.426;1.500;2023-04-24T00:06:06;13.10;90.70
62363;DHT22;48396;48.426;1.500;2023-04-24T00:08:34;13.00;91.00
62363;DHT22;48396;48.426;1.500;2023-04-24T00:10:59;13.00;91.10
62363;DHT22;48396;48.426;1.500;2023-04-24T00:13:25;13.10;91.00
62363;DHT22;48396;48.426;1.500;2023-04-24T00:15:51;13.20;90.90
62363;DHT22;48396;48.426;1.500;2023-04-24T00:18:16;13.20;90.80
62363;DHT22;48396;48.426;1.500;2023-04-24T00:20:42;13.10;91.10
62363;DHT22;48396;48.426;1.500;2023-04-24T00:23:09;13.00;91.10
62363;DHT22;48396;48.426;1.500;2023-04-24T00:25:34;13.00;91.10
62363;DHT22;48396;48.426;1.500;2023-04-24T00:28:00;12.90;91.10
62363;DHT22;48396;48.426;1.500;2023-04-24T00:30:27;13.00;91.10
62363;DHT22;48396;48.426;1.500;2023-04-24T00:32:52;13.10;91.00
62363;DHT22;48396;48.426;1.500;2023-04-24T00:35:18;13.00;90.90
62363;DHT22;48396;48.426;1.500;2023-04-24T00:37:45;12.80;91.10
62363;DHT22;48396;48.426;1.500;2023-04-24T00:40:11;12.90;91.10
62363;DHT22;48396;48.426;1.500;2023-04-24T00:42:37;12.70;91.20
62363;DHT22;48396;48.426;1.500;2023-04-24T00:45:03;12.80;91.30
62363;DHT22;48396;48.426;1.500;2023-04-24T00:47:29;12.80;91.30
62363;DHT22;48396;48.426;1.500;2023-04-24T00:49:55;12.80;91.30
62363;DHT22;48396;48.426;1.500;2023-04-24T00:52:21;12.80;91.40
62363;DHT22;48396;48.426;1.500;2023-04-24T00:54:49;12.70;91.40
62363;DHT22;48396;48.426;1.500;2023-04-24T00:57:15;12.60;91.60
62363;DHT22;48396;48.426;1.500;2023-04-24T00:59:42;12.70;91.70
62363;DHT22;48396;48.426;1.500;2023-04-24T01:02:09;12.80;91.60
62363;DHT22;48396;48.426;1.500;2023-04-24T01:04:36;12.70;91.70
62363;DHT22;48396;48.426;1.500;2023-04-24T01:07:02;12.50;91.90
62363;DHT22;48396;48.426;1.500;2023-04-24T01:09:28;12.20;92.30
62363;DHT22;48396;48.426;1.500;2023-04-24T01:11:54;12.10;92.70
62363;DHT22;48396;48.426;1.500;2023-04-24T01:14:20;12.00;92.90
62363;DHT22;48396;48.426;1.500;2023-04-24T01:16:45;12.10;92.90
62363;DHT22;48396;48.426;1.500;2023-04-24T01:19:11;12.10;93.10
62363;DHT22;48396;48.426;1.500;2023-04-24T01:21:38;12.10;93.10
62363;DHT22;48396;48.426;1.500;2023-04-24T01:24:05;12.20;93.10
62363;DHT22;48396;48.426;1.500;2023-04-24T01:26:31;12.20;93.10
62363;DHT22;48396;48.426;1.500;2023-04-24T01:28:57;12.30;93.10
62363;DHT22;48396;48.426;1.500;2023-04-24T01:31:23;12.20;93.10
62363;DHT22;48396;48.426;1.500;2023-04-24T01:33:49;12.10;93.40
62363;DHT22;48396;48.426;1.500;2023-04-24T01:36:16;12.00;93.60
62363;DHT22;48396;48.426;1.500;2023-04-24T01:38:42;12.00;93.70
62363;DHT22;48396;48.426;1.500;2023-04-24T01:41:07;12.10;93.60
62363;DHT22;48396;48.426;1.500;2023-04-24T01:43:33;12.10;93.60
62363;DHT22;48396;48.426;1.500;2023-04-24T01:45:58;12.10;93.90
62363;DHT22;48396;48.426;1.500;2023-04-24T01:48:24;12.00;94.00
62363;DHT22;48396;48.426;1.500;2023-04-24T01:50:50;12.00;94.10
62363;DHT22;48396;48.426;1.500;2023-04-24T01:53:16;12.00;94.20
62363;DHT22;48396;48.426;1.500;2023-04-24T01:55:42;12.00;94.30
62363;DHT22;48396;48.426;1.500;2023-04-24T01:58:07;12.10;94.30
62363;DHT22;48396;48.426;1.500;2023-04-24T02:00:33;12.20;94.10
62363;DHT22;48396;48.426;1.500;2023-04-24T02:02:59;12.20;94.10
62363;DHT22;48396;48.426;1.500;2023-04-24T02:05:24;12.20;94.10
62363;DHT22;48396;48.426;1.500;2023-04-24T02:07:50;12.30;94.00
62363;DHT22;48396;48.426;1.500;2023-04-24T02:10:15;12.20;94.00
62363;DHT22;48396;48.426;1.500;2023-04-24T02:12:41;12.30;94.00
62363;DHT22;48396;48.426;1.500;2023-04-24T02:15:07;12.40;94.00
62363;DHT22;48396;48.426;1.500;2023-04-24T02:17:32;12.40;93.90
62363;DHT22;48396;48.426;1.500;2023-04-24T02:19:58;12.40;93.80
62363;DHT22;48396;48.426;1.500;2023-04-24T02:22:23;12.30;93.90
62363;DHT22;48396;48.426;1.500;2023-04-24T02:24:49;12.30;94.00
62363;DHT22;48396;48.426;1.500;2023-04-24T02:27:15;12.20;94.10
62363;DHT22;48396;48.426;1.500;2023-04-24T02:29:40;12.10;94.50
62363;DHT22;48396;48.426;1.500;2023-04-24T02:32:06;12.10;94.10
62363;DHT22;48396;48.426;1.500;2023-04-24T02:34:31;12.20;94.10
62363;DHT22;48396;48.426;1.500;2023-04-24T02:36:57;12.20;94.10
62363;DHT22;48396;48.426;1.500;2023-04-24T02:39:23;12.00;94.30
62363;DHT22;48396;48.426;1.500;2023-04-24T02:41:48;12.00;94.40
62363;DHT22;48396;48.426;1.500;2023-04-24T02:44:14;12.00;94.40
62363;DHT22;48396;48.426;1.500;2023-04-24T02:46:39;11.90;94.30
62363;DHT22;48396;48.426;1.500;2023-04-24T02:49:06;11.90;94.40
62363;DHT22;48396;48.426;1.500;2023-04-24T02:51:32;11.90;94.40
62363;DHT22;48396;48.426;1.500;2023-04-24T02:53:57;11.90;94.40
62363;DHT22;48396;48.426;1.500;2023-04-24T02:56:23;12.00;94.50
62363;DHT22;48396;48.426;1.500;2023-04-24T02:58:48;12.00;94.40
62363;DHT22;48396;48.426;1.500;2023-04-24T03:01:14;12.10;94.30
62363;DHT22;48396;48.426;1.500;2023-04-24T03:03:40;12.20;94.20
62363;DHT22;48396;48.426;1.500;2023-04-24T03:06:05;12.30;94.00
62363;DHT22;48396;48.426;1.500;2023-04-24T03:08:33;12.30;94.00
62363;DHT22;48396;48.426;1.500;2023-04-24T03:10:59;12.30;93.90
62363;DHT22;48396;48.426;1.500;2023-04-24T03:13:24;12.20;94.10
62363;DHT22;48396;48.426;1.500;2023-04-24T03:15:50;12.30;94.10
62363;DHT22;48396;48.426;1.500;2023-04-24T03:18:15;12.30;94.00
62363;DHT22;48396;48.426;1.500;2023-04-24T03:20:41;12.20;94.10
62363;DHT22;48396;48.426;1.500;2023-04-24T03:23:07;12.20;94.20
62363;DHT22;48396;48.426;1.500;2023-04-24T03:25:32;12.10;94.30
62363;DHT22;48396;48.426;1.500;2023-04-24T03:27:58;12.20;94.30
62363;DHT22;48396;48.426;1.500;2023-04-24T03:30:23;12.10;94.30
62363;DHT22;48396;48.426;1.500;2023-04-24T03:32:49;12.10;94.40
62363;DHT22;48396;48.426;1.500;2023-04-24T03:35:15;12.00;94.40
62363;DHT22;48396;48.426;1.500;2023-04-24T03:37:40;12.00;94.50
62363;DHT22;48396;48.426;1.500;2023-04-24T03:40:06;12.20;94.40
62363;DHT22;48396;48.426;1.500;2023-04-24T03:42:33;12.10;94.30
62363;DHT22;48396;48.426;1.500;2023-04-24T03:44:58;12.10;94.40
62363;DHT22;48396;48.426;1.500;2023-04-24T03:47:24;12.10;94.40
62363;DHT22;48396;48.426;1.500;2023-04-24T03:49:50;12.00;94.50
62363;DHT22;48396;48.426;1.500;2023-04-24T03:52:15;12.10;94.50
62363;DHT22;48396;48.426;1.500;2023-04-24T03:54:41;12.10;94.40
62363;DHT22;48396;48.426;1.500;2023-04-24T03:57:06;12.20;94.30
62363;DHT22;48396;48.426;1.500;2023-04-24T03:59:32;12.30;94.20
62363;DHT22;48396;48.426;1.500;2023-04-24T04:01:58;12.20;94.20
62363;DHT22;48396;48.426;1.500;2023-04-24T04:07:07;12.20;94.20
62363;DHT22;48396;48.426;1.500;2023-04-24T04:09:33;12.20;94.10
62363;DHT22;48396;48.426;1.500;2023-04-24T04:11:59;12.20;94.00
62363;DHT22;48396;48.426;1.500;2023-04-24T04:14:26;12.20;94.20
62363;DHT22;48396;48.426;1.500;2023-04-24T04:16:52;12.20;94.20
62363;DHT22;48396;48.426;1.500;2023-04-24T04:19:17;12.30;94.10
62363;DHT22;48396;48.426;1.500;2023-04-24T04:21:43;12.20;94.10
62363;DHT22;48396;48.426;1.500;2023-04-24T04:24:11;12.40;94.00
62363;DHT22;48396;48.426;1.500;2023-04-24T04:26:36;12.50;93.80
62363;DHT22;48396;48.426;1.500;2023-04-24T04:29:03;12.60;93.60
62363;DHT22;48396;48.426;1.500;2023-04-24T04:31:29;12.40;93.60
62363;DHT22;48396;48.426;1.500;2023-04-24T04:33:55;12.40;93.70
62363;DHT22;48396;48.426;1.500;2023-04-24T04:36:21;12.60;93.60
62363;DHT22;48396;48.426;1.500;2023-04-24T04:38:46;12.80;93.30
62363;DHT22;48396;48.426;1.500;2023-04-24T04:41:12;12.80;93.10
62363;DHT22;48396;48.426;1.500;2023-04-24T04:43:38;12.70;93.00
62363;DHT22;48396;48.426;1.500;2023-04-24T04:46:05;12.50;93.20
62363;DHT22;48396;48.426;1.500;2023-04-24T04:48:31;12.40;93.50
62363;DHT22;48396;48.426;1.500;2023-04-24T04:50:57;12.50;93.50
62363;DHT22;48396;48.426;1.500;2023-04-24T04:53:23;12.60;93.40
62363;DHT22;48396;48.426;1.500;2023-04-24T04:55:49;12.60;93.20
62363;DHT22;48396;48.426;1.500;2023-04-24T04:58:14;12.70;93.10
62363;DHT22;48396;48.426;1.500;2023-04-24T05:00:40;12.60;93.10
62363;DHT22;48396;48.426;1.500;2023-04-24T05:03:06;12.40;93.20
62363;DHT22;48396;48.426;1.500;2023-04-24T05:05:32;12.40;93.40
62363;DHT22;48396;48.426;1.500;2023-04-24T05:07:57;12.30;93.50
62363;DHT22;48396;48.426;1.500;2023-04-24T05:10:23;12.30;93.60
62363;DHT22;48396;48.426;1.500;2023-04-24T05:12:49;12.40;93.50
62363;DHT22;48396;48.426;1.500;2023-04-24T05:15:15;12.30;93.50
62363;DHT22;48396;48.426;1.500;2023-04-24T05:17:40;12.10;93.90
62363;DHT22;48396;48.426;1.500;2023-04-24T05:20:07;12.10;94.10
62363;DHT22;48396;48.426;1.500;2023-04-24T05:22:33;12.10;94.00
62363;DHT22;48396;48.426;1.500;2023-04-24T05:24:58;12.10;94.10
62363;DHT22;48396;48.426;1.500;2023-04-24T05:27:24;11.90;94.40
62363;DHT22;48396;48.426;1.500;2023-04-24T05:29:50;12.00;94.40
62363;DHT22;48396;48.426;1.500;2023-04-24T05:32:16;12.00;94.50
62363;DHT22;48396;48.426;1.500;2023-04-24T05:34:41;12.00;94.50
62363;DHT22;48396;48.426;1.500;2023-04-24T05:37:07;11.90;94.50
62363;DHT22;48396;48.426;1.500;2023-04-24T05:39:35;12.10;94.40
62363;DHT22;48396;48.426;1.500;2023-04-24T05:42:01;12.20;94.30
62363;DHT22;48396;48.426;1.500;2023-04-24T05:44:27;12.10;94.30
62363;DHT22;48396;48.426;1.500;2023-04-24T05:46:52;12.00;94.60
62363;DHT22;48396;48.426;1.500;2023-04-24T05:49:18;12.00;94.70
62363;DHT22;48396;48.426;1.500;2023-04-24T05:51:44;12.10;94.50
62363;DHT22;48396;48.426;1.500;2023-04-24T05:54:10;12.20;94.50
62363;DHT22;48396;48.426;1.500;2023-04-24T05:56:37;12.20;94.50
62363;DHT22;48396;48.426;1.500;2023-04-24T05:59:03;12.10;94.60
62363;DHT22;48396;48.426;1.500;2023-04-24T06:01:28;12.20;94.50
62363;DHT22;48396;48.426;1.500;2023-04-24T06:03:54;12.20;94.50
62363;DHT22;48396;48.426;1.500;2023-04-24T06:06:20;12.30;94.50
62363;DHT22;48396;48.426;1.500;2023-04-24T06:08:46;12.50;94.40
62363;DHT22;48396;48.426;1.500;2023-04-24T06:11:11;12.60;94.30
62363;DHT22;48396;48.426;1.500;2023-04-24T06:13:37;12.50;94.30
62363;DHT22;48396;48.426;1.500;2023-04-24T06:16:03;12.50;94.40
62363;DHT22;48396;48.426;1.500;2023-04-24T06:18:28;12.60;94.40
62363;DHT22;48396;48.426;1.500;2023-04-24T06:20:54;12.60;94.40
62363;DHT22;48396;48.426;1.500;2023-04-24T06:23:20;12.70;94.40
62363;DHT22;48396;48.426;1.500;2023-04-24T06:25:46;12.60;94.60
62363;DHT22;48396;48.426;1.500;2023-04-24T06:28:12;12.50;94.90
62363;DHT22;48396;48.426;1.500;2023-04-24T06:30:37;12.60;95.00
62363;DHT22;48396;48.426;1.500;2023-04-24T06:33:03;12.80;94.90
62363;DHT22;48396;48.426;1.500;2023-04-24T06:35:29;12.80;94.90
62363;DHT22;48396;48.426;1.500;2023-04-24T06:40:38;13.00;94.90
62363;DHT22;48396;48.426;1.500;2023-04-24T06:43:04;13.00;95.00
62363;DHT22;48396;48.426;1.500;2023-04-24T06:48:14;12.90;95.20
62363;DHT22;48396;48.426;1.500;2023-04-24T06:50:40;12.90;95.40
62363;DHT22;48396;48.426;1.500;2023-04-24T06:53:06;12.80;95.60
62363;DHT22;48396;48.426;1.500;2023-04-24T06:55:31;12.70;95.50
62363;DHT22;48396;48.426;1.500;2023-04-24T07:01:00;12.70;95.90
62363;DHT22;48396;48.426;1.500;2023-04-24T07:03:25;12.80;95.60
62363;DHT22;48396;48.426;1.500;2023-04-24T07:05:51;12.60;95.70
62363;DHT22;48396;48.426;1.500;2023-04-24T07:08:17;12.70;95.90
62363;DHT22;48396;48.426;1.500;2023-04-24T07:10:44;12.80;95.70
62363;DHT22;48396;48.426;1.500;2023-04-24T07:13:10;12.80;95.70
62363;DHT22;48396;48.426;1.500;2023-04-24T07:15:35;12.60;95.80
62363;DHT22;48396;48.426;1.500;2023-04-24T07:18:01;12.80;95.90
62363;DHT22;48396;48.426;1.500;2023-04-24T07:20:26;12.80;96.00
62363;DHT22;48396;48.426;1.500;2023-04-24T07:22:52;12.90;96.00
62363;DHT22;48396;48.426;1.500;2023-04-24T07:25:19;12.80;96.30
62363;DHT22;48396;48.426;1.500;2023-04-24T07:27:45;12.90;96.10
62363;DHT22;48396;48.426;1.500;2023-04-24T07:30:11;13.00;95.60
62363;DHT22;48396;48.426;1.500;2023-04-24T07:32:37;12.90;95.40
62363;DHT22;48396;48.426;1.500;2023-04-24T07:35:02;12.80;95.80
62363;DHT22;48396;48.426;1.500;2023-04-24T07:37:28;12.70;96.10
62363;DHT22;48396;48.426;1.500;2023-04-24T07:39:54;12.70;96.20
62363;DHT22;48396;48.426;1.500;2023-04-24T07:42:20;12.70;96.20
62363;DHT22;48396;48.426;1.500;2023-04-24T07:44:46;12.80;96.20
62363;DHT22;48396;48.426;1.500;2023-04-24T07:47:13;12.90;95.90
62363;DHT22;48396;48.426;1.500;2023-04-24T07:49:41;13.00;95.70
62363;DHT22;48396;48.426;1.500;2023-04-24T07:52:07;13.10;95.80
62363;DHT22;48396;48.426;1.500;2023-04-24T07:54:33;13.20;95.40
62363;DHT22;48396;48.426;1.500;2023-04-24T07:56:58;13.30;95.30
62363;DHT22;48396;48.426;1.500;2023-04-24T07:59:24;13.30;95.30
62363;DHT22;48396;48.426;1.500;2023-04-24T08:01:49;13.40;95.30
62363;DHT22;48396;48.426;1.500;2023-04-24T08:04:15;13.40;95.10
62363;DHT22;48396;48.426;1.500;2023-04-24T08:06:40;13.20;94.90
62363;DHT22;48396;48.426;1.500;2023-04-24T08:09:06;13.20;94.80
62363;DHT22;48396;48.426;1.500;2023-04-24T08:11:32;13.30;94.90
62363;DHT22;48396;48.426;1.500;2023-04-24T08:13:58;13.30;94.70
62363;DHT22;48396;48.426;1.500;2023-04-24T08:16:23;13.40;94.90
62363;DHT22;48396;48.426;1.500;2023-04-24T08:18:49;13.30;94.60
62363;DHT22;48396;48.426;1.500;2023-04-24T08:21:15;13.40;94.70
62363;DHT22;48396;48.426;1.500;2023-04-24T08:23:45;13.40;94.50
62363;DHT22;48396;48.426;1.500;2023-04-24T08:26:11;13.40;94.60
62363;DHT22;48396;48.426;1.500;2023-04-24T08:28:37;13.30;94.50
62363;DHT22;48396;48.426;1.500;2023-04-24T08:31:03;13.20;94.20
62363;DHT22;48396;48.426;1.500;2023-04-24T08:33:28;13.20;94.50
62363;DHT22;48396;48.426;1.500;2023-04-24T08:36:03;13.30;94.40
62363;DHT22;48396;48.426;1.500;2023-04-24T08:38:28;13.40;94.30
62363;DHT22;48396;48.426;1.500;2023-04-24T08:40:56;13.40;94.00
62363;DHT22;48396;48.426;1.500;2023-04-24T08:43:22;13.40;94.00
62363;DHT22;48396;48.426;1.500;2023-04-24T08:46:06;13.50;93.80
62363;DHT22;48396;48.426;1.500;2023-04-24T08:48:32;13.50;93.80
62363;DHT22;48396;48.426;1.500;2023-04-24T08:50:58;13.60;93.80
62363;DHT22;48396;48.426;1.500;2023-04-24T08:53:25;13.70;93.70
62363;DHT22;48396;48.426;1.500;2023-04-24T08:55:51;13.80;93.30
62363;DHT22;48396;48.426;1.500;2023-04-24T08:58:19;13.70;93.20
62363;DHT22;48396;48.426;1.500;2023-04-24T09:00:45;13.70;93.40
62363;DHT22;48396;48.426;1.500;2023-04-24T09:03:16;13.60;92.90
62363;DHT22;48396;48.426;1.500;2023-04-24T09:05:43;13.50;92.90
62363;DHT22;48396;48.426;1.500;2023-04-24T09:08:12;13.50;93.10
62363;DHT22;48396;48.426;1.500;2023-04-24T09:10:39;13.60;93.20
62363;DHT22;48396;48.426;1.500;2023-04-24T09:13:23;13.60;93.40
62363;DHT22;48396;48.426;1.500;2023-04-24T09:15:49;13.60;93.50
62363;DHT22;48396;48.426;1.500;2023-04-24T09:18:15;13.60;93.60
62363;DHT22;48396;48.426;1.500;2023-04-24T09:23:27;13.60;93.10
62363;DHT22;48396;48.426;1.500;2023-04-24T09:25:57;13.60;93.50
62363;DHT22;48396;48.426;1.500;2023-04-24T09:31:18;13.60;93.50
62363;DHT22;48396;48.426;1.500;2023-04-24T09:36:19;13.70;93.60
62363;DHT22;48396;48.426;1.500;2023-04-24T09:38:44;13.60;93.60
62363;DHT22;48396;48.426;1.500;2023-04-24T09:41:28;13.70;93.70
62363;DHT22;48396;48.426;1.500;2023-04-24T09:43:55;13.90;93.60
62363;DHT22;48396;48.426;1.500;2023-04-24T09:46:28;13.90;93.20
62363;DHT22;48396;48.426;1.500;2023-04-24T09:48:54;13.90;92.80
62363;DHT22;48396;48.426;1.500;2023-04-24T09:51:33;13.90;93.10
62363;DHT22;48396;48.426;1.500;2023-04-24T09:53:59;14.00;92.60
62363;DHT22;48396;48.426;1.500;2023-04-24T09:56:25;13.80;92.70
62363;DHT22;48396;48.426;1.500;2023-04-24T09:58:51;13.90;93.00
62363;DHT22;48396;48.426;1.500;2023-04-24T10:01:32;14.00;92.60
62363;DHT22;48396;48.426;1.500;2023-04-24T10:03:58;14.10;92.40
62363;DHT22;48396;48.426;1.500;2023-04-24T10:06:33;14.00;92.50
62363;DHT22;48396;48.426;1.500;2023-04-24T10:08:59;13.90;92.60
62363;DHT22;48396;48.426;1.500;2023-04-24T10:11:27;14.00;92.70
62363;DHT22;48396;48.426;1.500;2023-04-24T10:13:53;14.20;92.50
62363;DHT22;48396;48.426;1.500;2023-04-24T10:16:20;14.20;92.40
62363;DHT22;48396;48.426;1.500;2023-04-24T10:18:47;14.30;92.40
62363;DHT22;48396;48.426;1.500;2023-04-24T10:21:14;14.40;92.10
62363;DHT22;48396;48.426;1.500;2023-04-24T10:23:41;14.30;91.60
62363;DHT22;48396;48.426;1.500;2023-04-24T10:26:12;14.10;91.70
62363;DHT22;48396;48.426;1.500;2023-04-24T10:28:46;14.10;92.30
62363;DHT22;48396;48.426;1.500;2023-04-24T10:31:13;14.20;92.20
62363;DHT22;48396;48.426;1.500;2023-04-24T10:33:43;14.30;91.80
62363;DHT22;48396;48.426;1.500;2023-04-24T10:36:11;14.30;91.40
62363;DHT22;48396;48.426;1.500;2023-04-24T10:38:40;14.30;91.00
62363;DHT22;48396;48.426;1.500;2023-04-24T10:41:08;14.30;91.20
62363;DHT22;48396;48.426;1.500;2023-04-24T10:43:34;14.30;91.20
62363;DHT22;48396;48.426;1.500;2023-04-24T10:46:05;14.40;91.20
62363;DHT22;48396;48.426;1.500;2023-04-24T10:48:32;14.60;91.10
62363;DHT22;48396;48.426;1.500;2023-04-24T10:50:58;14.70;90.70
62363;DHT22;48396;48.426;1.500;2023-04-24T10:53:27;14.60;90.80
62363;DHT22;48396;48.426;1.500;2023-04-24T10:56:02;14.60;90.30
62363;DHT22;48396;48.426;1.500;2023-04-24T10:58:51;14.60;90.30
62363;DHT22;48396;48.426;1.500;2023-04-24T11:01:32;14.60;90.50
62363;DHT22;48396;48.426;1.500;2023-04-24T11:04:03;14.60;89.90
62363;DHT22;48396;48.426;1.500;2023-04-24T11:09:06;14.50;90.90
62363;DHT22;48396;48.426;1.500;2023-04-24T11:11:32;14.50;90.80
62363;DHT22;48396;48.426;1.500;2023-04-24T11:16:52;14.70;90.50
62363;DHT22;48396;48.426;1.500;2023-04-24T11:19:21;14.80;90.10
62363;DHT22;48396;48.426;1.500;2023-04-24T11:22:04;14.70;89.20
62363;DHT22;48396;48.426;1.500;2023-04-24T11:24:48;14.50;89.40
62363;DHT22;48396;48.426;1.500;2023-04-24T11:27:17;14.50;90.10
62363;DHT22;48396;48.426;1.500;2023-04-24T11:29:58;14.60;90.10
62363;DHT22;48396;48.426;1.500;2023-04-24T11:32:30;14.70;90.30
62363;DHT22;48396;48.426;1.500;2023-04-24T11:35:01;14.70;90.00
62363;DHT22;48396;48.426;1.500;2023-04-24T11:37:37;14.70;90.00
62363;DHT22;48396;48.426;1.500;2023-04-24T11:40:04;14.70;90.10
62363;DHT22;48396;48.426;1.500;2023-04-24T11:42:34;14.60;90.00
62363;DHT22;48396;48.426;1.500;2023-04-24T11:45:00;14.70;89.90
62363;DHT22;48396;48.426;1.500;2023-04-24T11:47:31;14.70;90.00
62363;DHT22;48396;48.426;1.500;2023-04-24T11:49:59;14.80;90.30
62363;DHT22;48396;48.426;1.500;2023-04-24T11:52:25;14.90;90.10
62363;DHT22;48396;48.426;1.500;2023-04-24T11:54:51;14.80;89.70
62363;DHT22;48396;48.426;1.500;2023-04-24T12:00:04;14.90;90.00
62363;DHT22;48396;48.426;1.500;2023-04-24T12:02:49;15.00;89.40
62363;DHT22;48396;48.426;1.500;2023-04-24T12:05:26;15.20;89.70
62363;DHT22;48396;48.426;1.500;2023-04-24T12:07:52;15.20;88.10
62363;DHT22;48396;48.426;1.500;2023-04-24T12:10:23;15.20;88.00
62363;DHT22;48396;48.426;1.500;2023-04-24T12:12:49;15.30;87.20
62363;DHT22;48396;48.426;1.500;2023-04-24T12:15:18;15.30;87.50
62363;DHT22;48396;48.426;1.500;2023-04-24T12:17:44;15.40;87.30
62363;DHT22;48396;48.426;1.500;2023-04-24T12:20:10;15.30;85.90
62363;DHT22;48396;48.426;1.500;2023-04-24T12:22:44;15.20;85.90
62363;DHT22;48396;48.426;1.500;2023-04-24T12:25:16;15.10;84.10
62363;DHT22;48396;48.426;1.500;2023-04-24T12:27:42;15.00;82.30
62363;DHT22;48396;48.426;1.500;2023-04-24T12:30:14;14.90;82.70
62363;DHT22;48396;48.426;1.500;2023-04-24T12:32:42;15.00;83.80
62363;DHT22;48396;48.426;1.500;2023-04-24T12:35:08;15.00;83.50
62363;DHT22;48396;48.426;1.500;2023-04-24T12:37:34;15.00;83.30
62363;DHT22;48396;48.426;1.500;2023-04-24T12:40:05;15.00;83.50
62363;DHT22;48396;48.426;1.500;2023-04-24T12:42:31;15.00;83.60
62363;DHT22;48396;48.426;1.500;2023-04-24T12:44:59;15.00;83.80
62363;DHT22;48396;48.426;1.500;2023-04-24T12:47:26;15.10;84.10
62363;DHT22;48396;48.426;1.500;2023-04-24T12:49:52;15.00;83.80
62363;DHT22;48396;48.426;1.500;2023-04-24T12:55:04;15.30;84.00
62363;DHT22;48396;48.426;1.500;2023-04-24T12:57:33;15.60;83.60
62363;DHT22;48396;48.426;1.500;2023-04-24T12:59:59;15.70;83.50
62363;DHT22;48396;48.426;1.500;2023-04-24T13:02:26;15.60;82.00
62363;DHT22;48396;48.426;1.500;2023-04-24T13:04:53;15.70;82.30
62363;DHT22;48396;48.426;1.500;2023-04-24T13:07:19;15.70;81.40
62363;DHT22;48396;48.426;1.500;2023-04-24T13:09:45;15.60;81.50
62363;DHT22;48396;48.426;1.500;2023-04-24T13:12:11;15.60;81.70
62363;DHT22;48396;48.426;1.500;2023-04-24T13:14:37;15.50;81.30
62363;DHT22;48396;48.426;1.500;2023-04-24T13:17:03;15.40;80.70
62363;DHT22;48396;48.426;1.500;2023-04-24T13:19:29;15.40;81.40
62363;DHT22;48396;48.426;1.500;2023-04-24T13:22:00;15.40;81.50
62363;DHT22;48396;48.426;1.500;2023-04-24T13:24:26;15.40;81.70
62363;DHT22;48396;48.426;1.500;2023-04-24T13:26:52;15.40;82.00
62363;DHT22;48396;48.426;1.500;2023-04-24T13:29:19;15.60;82.30
62363;DHT22;48396;48.426;1.500;2023-04-24T13:31:46;15.70;81.20
62363;DHT22;48396;48.426;1.500;2023-04-24T13:34:13;15.80;81.10
62363;DHT22;48396;48.426;1.500;2023-04-24T13:36:38;15.90;81.10
62363;DHT22;48396;48.426;1.500;2023-04-24T13:39:05;16.10;80.70
62363;DHT22;48396;48.426;1.500;2023-04-24T13:41:32;16.10;80.30
62363;DHT22;48396;48.426;1.500;2023-04-24T13:43:58;16.10;79.40
62363;DHT22;48396;48.426;1.500;2023-04-24T13:46:23;16.10;79.60
62363;DHT22;48396;48.426;1.500;2023-04-24T13:48:49;16.10;79.10
62363;DHT22;48396;48.426;1.500;2023-04-24T13:51:15;16.00;78.30
62363;DHT22;48396;48.426;1.500;2023-04-24T13:53:40;16.10;78.90
62363;DHT22;48396;48.426;1.500;2023-04-24T13:56:06;16.10;78.60
62363;DHT22;48396;48.426;1.500;2023-04-24T13:58:32;16.10;79.30
62363;DHT22;48396;48.426;1.500;2023-04-24T14:00:58;16.10;79.30
62363;DHT22;48396;48.426;1.500;2023-04-24T14:03:23;16.20;78.40
62363;DHT22;48396;48.426;1.500;2023-04-24T14:05:49;16.20;77.10
62363;DHT22;48396;48.426;1.500;2023-04-24T14:08:15;16.20;76.80
62363;DHT22;48396;48.426;1.500;2023-04-24T14:10:40;16.20;76.30
62363;DHT22;48396;48.426;1.500;2023-04-24T14:13:06;16.10;75.90
62363;DHT22;48396;48.426;1.500;2023-04-24T14:15:32;16.00;76.50
62363;DHT22;48396;48.426;1.500;2023-04-24T14:17:57;16.00;77.00
62363;DHT22;48396;48.426;1.500;2023-04-24T14:20:23;16.00;77.80
62363;DHT22;48396;48.426;1.500;2023-04-24T14:22:49;16.00;78.40
62363;DHT22;48396;48.426;1.500;2023-04-24T14:25:14;16.10;77.70
62363;DHT22;48396;48.426;1.500;2023-04-24T14:27:40;16.10;77.80
62363;DHT22;48396;48.426;1.500;2023-04-24T14:30:06;16.20;77.70
62363;DHT22;48396;48.426;1.500;2023-04-24T14:32:32;16.10;77.80
62363;DHT22;48396;48.426;1.500;2023-04-24T14:35:16;16.10;77.80
62363;DHT22;48396;48.426;1.500;2023-04-24T14:37:42;16.30;78.20
62363;DHT22;48396;48.426;1.500;2023-04-24T14:40:08;16.20;77.80
62363;DHT22;48396;48.426;1.500;2023-04-24T14:42:34;16.20;78.60
62363;DHT22;48396;48.426;1.500;2023-04-24T14:45:01;16.30;76.70
62363;DHT22;48396;48.426;1.500;2023-04-24T14:47:26;16.30;76.50
62363;DHT22;48396;48.426;1.500;2023-04-24T14:49:52;16.30;75.80
62363;DHT22;48396;48.426;1.500;2023-04-24T14:52:18;16.30;75.50
62363;DHT22;48396;48.426;1.500;2023-04-24T14:54:43;16.40;75.70
62363;DHT22;48396;48.426;1.500;2023-04-24T14:57:09;16.30;75.60
62363;DHT22;48396;48.426;1.500;2023-04-24T14:59:35;16.40;76.00
62363;DHT22;48396;48.426;1.500;2023-04-24T15:02:00;16.40;75.60
62363;DHT22;48396;48.426;1.500;2023-04-24T15:04:28;16.40;76.10
62363;DHT22;48396;48.426;1.500;2023-04-24T15:06:56;16.40;75.30
62363;DHT22;48396;48.426;1.500;2023-04-24T15:09:23;16.30;75.50
62363;DHT22;48396;48.426;1.500;2023-04-24T15:11:49;16.20;75.10
62363;DHT22;48396;48.426;1.500;2023-04-24T15:14:16;16.10;75.80
62363;DHT22;48396;48.426;1.500;2023-04-24T15:16:42;16.20;76.30
62363;DHT22;48396;48.426;1.500;2023-04-24T15:19:08;16.30;75.60
62363;DHT22;48396;48.426;1.500;2023-04-24T15:21:36;16.30;75.50
62363;DHT22;48396;48.426;1.500;2023-04-24T15:24:01;16.30;75.80
62363;DHT22;48396;48.426;1.500;2023-04-24T15:26:27;16.40;75.80
62363;DHT22;48396;48.426;1.500;2023-04-24T15:28:53;16.50;74.80
62363;DHT22;48396;48.426;1.500;2023-04-24T15:31:19;16.50;74.80
62363;DHT22;48396;48.426;1.500;2023-04-24T15:33:45;16.60;73.80
62363;DHT22;48396;48.426;1.500;2023-04-24T15:36:10;16.60;73.40
62363;DHT22;48396;48.426;1.500;2023-04-24T15:38:37;16.70;74.00
62363;DHT22;48396;48.426;1.500;2023-04-24T15:41:02;16.70;72.30
62363;DHT22;48396;48.426;1.500;2023-04-24T15:43:28;16.60;72.10
62363;DHT22;48396;48.426;1.500;2023-04-24T15:45:59;16.70;72.10
62363;DHT22;48396;48.426;1.500;2023-04-24T15:48:25;16.70;73.00
62363;DHT22;48396;48.426;1.500;2023-04-24T15:50:50;16.80;71.80
62363;DHT22;48396;48.426;1.500;2023-04-24T15:53:16;16.60;71.00
62363;DHT22;48396;48.426;1.500;2023-04-24T15:55:50;16.50;71.70
62363;DHT22;48396;48.426;1.500;2023-04-24T15:58:16;16.60;72.70